createdAt,value
2023-05-09T00:00:32.196Z,20.90
2023-05-09T00:02:59.136Z,21.00
2023-05-09T00:05:26.179Z,21.00
2023-05-09T00:07:53.112Z,21.00
2023-05-09T00:10:20.141Z,20.90
2023-05-09T00:12:47.059Z,21.00
2023-05-09T00:15:14.297Z,21.10
2023-05-09T00:17:46.866Z,21.10
2023-05-09T00:20:13.797Z,21.10
2023-05-09T00:22:40.760Z,21.10
2023-05-09T00:25:08.944Z,21.10
2023-05-09T00:27:35.947Z,21.20
2023-05-09T00:30:03.994Z,21.20
2023-05-09T00:32:31.006Z,21.10
2023-05-09T00:34:58.326Z,21.10
2023-05-09T00:37:25.346Z,21.10
2023-05-09T00:39:52.196Z,21.10
2023-05-09T00:42:19.124Z,21.20
2023-05-09T00:47:33.934Z,21.10
2023-05-09T00:50:01.481Z,21.10
2023-05-09T00:52:28.396Z,21.00
2023-05-09T00:54:55.540Z,21.00
2023-05-09T00:57:23.014Z,21.00
2023-05-09T00:59:49.954Z,20.90
2023-05-09T01:02:17.795Z,20.90
2023-05-09T01:04:46.091Z,20.80
2023-05-09T01:07:56.965Z,20.90
2023-05-09T01:10:37.465Z,20.80
2023-05-09T01:13:07.598Z,20.60
2023-05-09T01:16:01.744Z,20.50
2023-05-09T01:19:16.381Z,20.40
2023-05-09T01:21:44.345Z,20.20
2023-05-09T01:24:45.355Z,20.00
2023-05-09T01:27:40.393Z,19.90
2023-05-09T01:30:07.993Z,19.80
2023-05-09T01:32:35.566Z,19.70
2023-05-09T01:35:03.277Z,19.70
2023-05-09T01:37:38.167Z,19.70
2023-05-09T01:40:18.870Z,19.80
2023-05-09T01:43:01.857Z,19.70
2023-05-09T01:45:28.743Z,19.70
2023-05-09T01:47:56.306Z,19.70
2023-05-09T01:50:23.286Z,19.70
2023-05-09T01:52:53.219Z,19.70
2023-05-09T01:55:21.672Z,19.70
2023-05-09T01:57:48.537Z,19.70
2023-05-09T02:00:15.653Z,19.70
2023-05-09T02:02:42.673Z,19.70
2023-05-09T02:05:10.399Z,19.70
2023-05-09T02:07:37.714Z,19.70
2023-05-09T02:10:05.489Z,19.70
2023-05-09T02:12:32.424Z,19.80
2023-05-09T02:14:59.353Z,19.70
2023-05-09T02:17:26.298Z,19.70
2023-05-09T02:19:53.224Z,19.70
2023-05-09T02:22:20.102Z,19.70
2023-05-09T02:24:46.953Z,19.70
2023-05-09T02:27:13.874Z,19.70
2023-05-09T02:29:45.403Z,19.70
2023-05-09T02:32:22.216Z,19.60
2023-05-09T02:34:50.557Z,19.60
2023-05-09T02:37:17.470Z,19.60
2023-05-09T02:39:44.544Z,19.60
2023-05-09T02:42:13.772Z,19.50
2023-05-09T02:44:40.611Z,19.60
2023-05-09T02:47:07.602Z,19.70
2023-05-09T02:49:34.631Z,19.70
2023-05-09T02:52:01.587Z,19.70
2023-05-09T02:54:28.518Z,19.80
2023-05-09T02:56:55.505Z,19.80
2023-05-09T02:59:22.376Z,19.80
2023-05-09T03:01:49.362Z,19.80
2023-05-09T03:04:16.329Z,19.90
2023-05-09T03:06:43.430Z,19.90
2023-05-09T03:09:10.382Z,19.90
2023-05-09T03:11:37.376Z,19.80
2023-05-09T03:14:04.692Z,19.80
2023-05-09T03:16:31.684Z,19.80
2023-05-09T03:18:58.639Z,19.80
2023-05-09T03:21:25.562Z,19.90
2023-05-09T03:23:52.509Z,19.90
2023-05-09T03:26:19.405Z,19.90
2023-05-09T03:28:46.716Z,19.90
2023-05-09T03:31:13.596Z,19.90
2023-05-09T03:33:40.538Z,19.90
2023-05-09T03:36:07.914Z,19.90
2023-05-09T03:38:34.807Z,19.80
2023-05-09T03:41:01.715Z,19.60
2023-05-09T03:43:28.599Z,19.50
2023-05-09T03:45:55.489Z,19.40
2023-05-09T03:48:22.380Z,19.40
2023-05-09T03:50:49.270Z,19.30
2023-05-09T03:53:16.158Z,19.30
2023-05-09T03:55:43.021Z,19.20
2023-05-09T03:58:11.168Z,19.20
2023-05-09T04:00:38.175Z,19.20
2023-05-09T04:03:05.153Z,19.20
2023-05-09T04:05:35.207Z,19.10
2023-05-09T04:08:02.351Z,19.10
2023-05-09T04:10:30.350Z,19.10
2023-05-09T04:12:57.313Z,19.10
2023-05-09T04:15:24.306Z,19.10
2023-05-09T04:17:51.281Z,19.20
2023-05-09T04:20:18.264Z,19.20
2023-05-09T04:22:46.928Z,19.30
2023-05-09T04:25:14.186Z,19.30
2023-05-09T04:27:41.220Z,19.20
2023-05-09T04:30:08.982Z,19.20
2023-05-09T04:32:35.973Z,19.20
2023-05-09T04:35:02.990Z,19.30
2023-05-09T04:37:29.923Z,19.40
2023-05-09T04:39:56.922Z,19.40
2023-05-09T04:42:23.878Z,19.40
2023-05-09T04:44:50.749Z,19.40
2023-05-09T04:47:17.604Z,19.50
2023-05-09T04:49:44.501Z,19.50
2023-05-09T04:52:11.413Z,19.30
2023-05-09T04:54:38.333Z,19.40
2023-05-09T04:57:16.664Z,19.40
2023-05-09T04:59:45.129Z,19.50
2023-05-09T05:02:12.037Z,19.50
2023-05-09T05:04:38.947Z,19.50
2023-05-09T05:07:05.892Z,19.40
2023-05-09T05:09:32.811Z,19.30
2023-05-09T05:12:02.285Z,19.30
2023-05-09T05:14:29.518Z,19.20
2023-05-09T05:16:56.408Z,19.30
2023-05-09T05:19:23.332Z,19.40
2023-05-09T05:21:50.284Z,19.40
2023-05-09T05:24:17.182Z,19.50
2023-05-09T05:26:44.133Z,19.50
2023-05-09T05:29:11.031Z,19.60
2023-05-09T05:31:37.981Z,19.60
2023-05-09T05:34:04.908Z,19.60
2023-05-09T05:36:31.818Z,19.70
2023-05-09T05:38:58.704Z,19.80
2023-05-09T05:41:25.689Z,19.90
2023-05-09T05:43:54.347Z,19.80
2023-05-09T05:46:21.580Z,19.80
2023-05-09T05:48:48.544Z,19.80
2023-05-09T05:51:15.546Z,19.70
2023-05-09T05:53:42.862Z,19.70
2023-05-09T05:56:09.749Z,19.80
2023-05-09T05:58:36.708Z,19.90
2023-05-09T06:01:03.672Z,20.10
2023-05-09T06:03:30.766Z,20.10
2023-05-09T06:05:57.718Z,20.30
2023-05-09T06:08:24.656Z,20.40
2023-05-09T06:10:51.507Z,20.50
2023-05-09T06:13:19.239Z,20.70
2023-05-09T06:15:46.173Z,20.70
2023-05-09T06:18:13.092Z,20.80
2023-05-09T06:20:40.012Z,20.80
2023-05-09T06:23:06.896Z,20.90
2023-05-09T06:25:33.768Z,20.90
2023-05-09T06:28:00.687Z,21.00
2023-05-09T06:30:27.716Z,21.00
2023-05-09T06:32:55.452Z,21.00
2023-05-09T06:35:22.518Z,20.90
2023-05-09T06:37:49.614Z,21.00
2023-05-09T06:40:17.103Z,21.00
2023-05-09T06:42:44.741Z,21.10
2023-05-09T06:45:12.038Z,21.00
2023-05-09T06:47:39.077Z,21.00
2023-05-09T06:50:06.959Z,21.00
2023-05-09T06:52:33.860Z,21.10
2023-05-09T06:55:00.776Z,21.20
2023-05-09T06:57:27.696Z,21.30
2023-05-09T06:59:54.628Z,21.20
2023-05-09T07:02:21.516Z,21.30
2023-05-09T07:04:48.545Z,21.40
2023-05-09T07:07:15.474Z,21.40
2023-05-09T07:09:42.402Z,21.30
2023-05-09T07:12:09.296Z,21.30
2023-05-09T07:14:36.228Z,21.30
2023-05-09T07:17:21.346Z,21.20
2023-05-09T07:19:50.403Z,21.20
2023-05-09T07:22:17.317Z,21.20
2023-05-09T07:24:44.282Z,21.20
2023-05-09T07:27:11.170Z,21.10
2023-05-09T07:29:38.094Z,21.10
2023-05-09T07:32:05.389Z,21.10
2023-05-09T07:34:32.392Z,21.00
2023-05-09T07:36:59.299Z,21.00
2023-05-09T07:39:26.240Z,21.00
2023-05-09T07:41:53.144Z,20.90
2023-05-09T07:44:20.035Z,20.80
2023-05-09T07:46:46.956Z,20.70
2023-05-09T07:49:13.811Z,20.60
2023-05-09T07:51:40.703Z,20.70
2023-05-09T07:54:07.613Z,20.70
2023-05-09T07:56:34.510Z,20.90
2023-05-09T07:59:01.386Z,21.00
2023-05-09T08:01:28.303Z,21.00
2023-05-09T08:03:55.236Z,21.10
2023-05-09T08:06:22.190Z,20.90
2023-05-09T08:08:49.752Z,21.00
2023-05-09T08:11:16.659Z,21.10
2023-05-09T08:13:43.560Z,21.20
2023-05-09T08:16:10.574Z,21.20
2023-05-09T08:18:37.452Z,21.10
2023-05-09T08:21:04.356Z,21.10
2023-05-09T08:23:31.274Z,21.20
2023-05-09T08:25:58.244Z,21.20
2023-05-09T08:28:25.149Z,21.20
2023-05-09T08:30:52.263Z,21.20
2023-05-09T08:33:19.265Z,21.40
2023-05-09T08:35:50.302Z,21.30
2023-05-09T08:38:17.217Z,21.40
2023-05-09T08:40:44.209Z,21.50
2023-05-09T08:43:11.160Z,21.70
2023-05-09T08:45:51.897Z,21.80
2023-05-09T08:48:18.979Z,21.80
2023-05-09T08:50:45.871Z,21.70
2023-05-09T08:53:12.778Z,21.70
2023-05-09T08:55:39.694Z,21.70
2023-05-09T08:58:06.804Z,21.80
2023-05-09T09:00:33.987Z,21.80
2023-05-09T09:03:02.416Z,21.80
2023-05-09T09:08:01.469Z,21.90
2023-05-09T09:10:29.977Z,22.00
2023-05-09T09:12:56.915Z,22.10
2023-05-09T09:15:23.861Z,22.10
2023-05-09T09:17:51.511Z,22.20
2023-05-09T09:20:18.974Z,22.20
2023-05-09T09:22:45.865Z,22.30
2023-05-09T09:25:12.690Z,22.30
2023-05-09T09:27:39.633Z,22.40
2023-05-09T09:30:11.379Z,22.50
2023-05-09T09:32:38.542Z,22.60
2023-05-09T09:35:06.994Z,22.40
2023-05-09T09:37:35.360Z,22.60
2023-05-09T09:40:02.539Z,22.70
2023-05-09T09:42:48.135Z,22.90
2023-05-09T09:45:19.986Z,23.10
2023-05-09T09:47:48.121Z,23.30
2023-05-09T09:50:17.452Z,23.40
2023-05-09T09:52:54.553Z,23.60
2023-05-09T09:55:22.922Z,23.80
2023-05-09T09:57:50.553Z,23.70
2023-05-09T10:00:19.932Z,23.50
2023-05-09T10:02:54.740Z,23.50
2023-05-09T10:05:26.352Z,23.40
2023-05-09T10:07:57.967Z,23.40
2023-05-09T10:10:28.148Z,23.20
2023-05-09T10:12:57.995Z,23.10
2023-05-09T10:15:25.170Z,22.90
2023-05-09T10:17:56.383Z,22.70
2023-05-09T10:20:23.707Z,22.80
2023-05-09T10:22:53.814Z,23.10
2023-05-09T10:25:21.672Z,23.20
2023-05-09T10:27:49.162Z,23.10
2023-05-09T10:30:21.800Z,23.30
2023-05-09T10:33:03.702Z,23.40
2023-05-09T10:35:33.760Z,23.20
2023-05-09T10:38:00.702Z,23.20
2023-05-09T10:40:28.572Z,23.00
2023-05-09T10:42:55.478Z,23.00
2023-05-09T10:45:22.445Z,23.10
2023-05-09T10:47:51.332Z,23.00
2023-05-09T10:50:18.322Z,23.00
2023-05-09T10:53:03.848Z,22.80
2023-05-09T10:55:57.287Z,22.90
2023-05-09T10:58:31.370Z,23.00
2023-05-09T11:01:00.543Z,23.10
2023-05-09T11:03:28.954Z,23.00
2023-05-09T11:05:57.440Z,22.90
2023-05-09T11:08:29.218Z,22.90
2023-05-09T11:10:57.524Z,23.00
2023-05-09T11:13:25.505Z,23.20
2023-05-09T11:16:12.866Z,23.30
2023-05-09T11:19:00.139Z,23.50
2023-05-09T11:21:27.185Z,23.80
2023-05-09T11:23:55.330Z,24.00
2023-05-09T11:26:22.621Z,24.30
2023-05-09T11:28:53.690Z,24.50
2023-05-09T11:31:20.696Z,24.60
2023-05-09T11:33:50.107Z,24.50
2023-05-09T11:36:26.777Z,24.70
2023-05-09T11:39:08.600Z,24.70
2023-05-09T11:41:43.622Z,24.60
2023-05-09T11:44:20.523Z,24.70
2023-05-09T11:46:48.473Z,24.70
2023-05-09T11:49:15.581Z,24.80
2023-05-09T11:51:42.528Z,24.60
2023-05-09T11:54:09.444Z,24.40
2023-05-09T11:56:38.304Z,24.50
2023-05-09T11:59:05.172Z,24.40
2023-05-09T12:01:32.104Z,24.40
2023-05-09T12:03:59.280Z,24.50
2023-05-09T12:06:26.229Z,24.70
2023-05-09T12:08:54.853Z,24.80
2023-05-09T12:11:21.752Z,24.60
2023-05-09T12:13:52.214Z,24.50
2023-05-09T12:16:20.104Z,24.30
2023-05-09T12:18:51.886Z,24.20
2023-05-09T12:21:19.407Z,24.10
2023-05-09T12:23:48.955Z,24.20
2023-05-09T12:26:17.727Z,24.30
2023-05-09T12:28:44.560Z,24.50
2023-05-09T12:31:11.600Z,24.70
2023-05-09T12:33:38.770Z,24.90
2023-05-09T12:36:09.048Z,25.10
2023-05-09T12:38:35.927Z,25.10
2023-05-09T12:41:22.349Z,25.00
2023-05-09T12:43:57.163Z,25.00
2023-05-09T12:46:24.185Z,25.20
2023-05-09T12:48:51.176Z,25.10
2023-05-09T12:51:21.828Z,25.20
2023-05-09T12:53:48.869Z,25.10
2023-05-09T12:56:20.627Z,25.00
2023-05-09T12:58:54.455Z,25.10
2023-05-09T13:01:29.016Z,25.10
2023-05-09T13:04:03.845Z,25.30
2023-05-09T13:06:30.996Z,25.50
2023-05-09T13:09:04.517Z,25.60
2023-05-09T13:11:31.613Z,25.70
2023-05-09T13:13:58.663Z,26.00
2023-05-09T13:16:30.258Z,25.90
2023-05-09T13:18:57.173Z,25.80
2023-05-09T13:21:24.039Z,25.60
2023-05-09T13:23:50.935Z,25.40
2023-05-09T13:26:17.777Z,25.30
2023-05-09T13:28:44.641Z,25.20
2023-05-09T13:31:11.660Z,25.10
2023-05-09T13:33:38.725Z,25.10
2023-05-09T13:36:05.877Z,25.00
2023-05-09T13:38:32.774Z,24.90
2023-05-09T13:41:00.313Z,25.00
2023-05-09T13:43:27.324Z,24.80
2023-05-09T13:45:54.212Z,24.60
2023-05-09T13:48:21.141Z,24.40
2023-05-09T13:50:48.016Z,24.30
2023-05-09T13:53:14.889Z,24.30
2023-05-09T13:55:41.765Z,24.30
2023-05-09T13:58:08.672Z,24.30
2023-05-09T14:00:35.605Z,24.30
2023-05-09T14:03:03.106Z,24.20
2023-05-09T14:05:33.519Z,24.20
2023-05-09T14:08:00.433Z,24.30
2023-05-09T14:10:27.498Z,24.30
2023-05-09T14:12:54.466Z,24.10
2023-05-09T14:15:21.522Z,24.00
2023-05-09T14:17:48.464Z,23.90
2023-05-09T14:20:15.674Z,23.70
2023-05-09T14:22:42.717Z,23.70
2023-05-09T14:25:10.152Z,23.70
2023-05-09T14:27:37.234Z,23.60
2023-05-09T14:30:04.996Z,23.50
2023-05-09T14:32:31.891Z,23.50
2023-05-09T14:34:58.797Z,23.50
2023-05-09T14:37:25.760Z,23.30
2023-05-09T14:39:52.683Z,23.20
2023-05-09T14:42:19.562Z,23.20
2023-05-09T14:44:47.599Z,23.10
2023-05-09T14:47:14.488Z,23.10
2023-05-09T14:49:41.464Z,22.90
2023-05-09T14:52:08.395Z,22.80
2023-05-09T14:54:35.312Z,22.80
2023-05-09T14:57:02.228Z,22.70
2023-05-09T14:59:29.136Z,22.60
2023-05-09T15:01:56.004Z,22.60
2023-05-09T15:04:22.872Z,22.60
2023-05-09T15:06:49.772Z,22.60
2023-05-09T15:09:16.618Z,22.60
2023-05-09T15:11:48.386Z,22.50
2023-05-09T15:14:15.895Z,22.50
2023-05-09T15:16:42.915Z,22.50
2023-05-09T15:19:10.010Z,22.40
2023-05-09T15:21:36.955Z,22.10
2023-05-09T15:24:04.951Z,22.20
2023-05-09T15:26:31.866Z,22.10
2023-05-09T15:28:58.770Z,22.10
2023-05-09T15:31:25.836Z,21.90
2023-05-09T15:33:52.869Z,21.80
2023-05-09T15:36:19.842Z,21.80
2023-05-09T15:38:46.702Z,21.60
2023-05-09T15:41:13.612Z,21.50
2023-05-09T15:43:40.478Z,21.40
2023-05-09T15:46:07.515Z,21.40
2023-05-09T15:48:34.498Z,21.20
2023-05-09T15:51:01.463Z,21.10
2023-05-09T15:53:28.351Z,20.90
2023-05-09T15:55:55.230Z,20.80
2023-05-09T15:58:22.185Z,20.60
2023-05-09T16:00:49.099Z,20.50
2023-05-09T16:03:16.134Z,20.40
2023-05-09T16:05:43.028Z,20.40
2023-05-09T16:08:09.942Z,20.40
2023-05-09T16:10:36.826Z,20.40
2023-05-09T16:13:03.815Z,20.30
2023-05-09T16:15:30.728Z,20.30
2023-05-09T16:17:57.668Z,20.20
2023-05-09T16:20:24.526Z,20.10
2023-05-09T16:22:51.487Z,20.00
2023-05-09T16:25:18.439Z,20.00
2023-05-09T16:27:45.364Z,19.90
2023-05-09T16:30:13.274Z,19.80
2023-05-09T16:32:40.415Z,19.80
2023-05-09T16:35:07.885Z,19.80
2023-05-09T16:37:35.664Z,19.70
2023-05-09T16:40:03.001Z,19.70
2023-05-09T16:42:29.919Z,19.60
2023-05-09T16:44:57.485Z,19.60
2023-05-09T16:47:24.432Z,19.60
2023-05-09T16:49:51.432Z,19.50
2023-05-09T16:52:18.277Z,19.60
2023-05-09T16:54:45.274Z,19.60
2023-05-09T16:57:13.099Z,19.50
2023-05-09T16:59:40.069Z,19.40
2023-05-09T17:02:06.955Z,19.30
2023-05-09T17:04:35.890Z,19.30
2023-05-09T17:07:04.376Z,19.20
2023-05-09T17:09:31.989Z,19.10
2023-05-09T17:11:58.892Z,19.10
2023-05-09T17:14:25.873Z,19.10
2023-05-09T17:16:53.173Z,19.10
2023-05-09T17:19:20.176Z,19.20
2023-05-09T17:21:47.079Z,19.10
2023-05-09T17:24:13.991Z,19.00
2023-05-09T17:26:40.959Z,19.00
2023-05-09T17:29:07.922Z,18.90
2023-05-09T17:31:34.845Z,18.80
2023-05-09T17:34:01.712Z,18.80
2023-05-09T17:36:28.737Z,18.70
2023-05-09T17:38:55.622Z,18.70
2023-05-09T17:41:22.508Z,18.60
2023-05-09T17:43:49.376Z,18.60
2023-05-09T17:46:16.265Z,18.50
2023-05-09T17:48:43.148Z,18.50
2023-05-09T17:51:10.042Z,18.40
2023-05-09T17:53:36.930Z,18.40
2023-05-09T17:56:04.011Z,18.30
2023-05-09T17:58:30.853Z,18.30
2023-05-09T18:00:57.823Z,18.30
2023-05-09T18:03:24.836Z,18.30
2023-05-09T18:05:51.895Z,18.30
2023-05-09T18:08:18.779Z,18.30
2023-05-09T18:10:45.692Z,18.30
2023-05-09T18:13:12.601Z,18.40
2023-05-09T18:15:39.677Z,18.50
2023-05-09T18:18:07.265Z,18.50
2023-05-09T18:20:35.170Z,18.40
2023-05-09T18:23:02.112Z,18.40
2023-05-09T18:25:29.006Z,18.30
2023-05-09T18:27:56.192Z,18.20
2023-05-09T18:30:23.089Z,18.10
2023-05-09T18:32:50.113Z,18.00
2023-05-09T18:35:17.043Z,17.90
2023-05-09T18:37:43.967Z,17.90
2023-05-09T18:40:11.035Z,17.80
2023-05-09T18:42:37.940Z,17.80
2023-05-09T18:45:05.337Z,17.80
2023-05-09T18:47:32.296Z,17.70
2023-05-09T18:50:01.736Z,17.70
2023-05-09T18:52:29.523Z,17.70
2023-05-09T18:54:56.374Z,17.60
2023-05-09T18:57:24.726Z,17.70
2023-05-09T18:59:51.764Z,17.70
2023-05-09T19:02:19.659Z,17.70
2023-05-09T19:04:46.664Z,17.80
2023-05-09T19:07:13.597Z,17.80
2023-05-09T19:09:40.538Z,17.70
2023-05-09T19:12:07.472Z,17.70
2023-05-09T19:14:34.477Z,17.70
2023-05-09T19:17:01.633Z,17.60
2023-05-09T19:19:28.589Z,17.60
2023-05-09T19:21:55.451Z,17.60
2023-05-09T19:24:22.444Z,17.70
2023-05-09T19:26:55.096Z,17.70
2023-05-09T19:29:21.980Z,17.70
2023-05-09T19:31:48.880Z,17.70
2023-05-09T19:34:15.918Z,17.70
2023-05-09T19:36:42.875Z,17.70
2023-05-09T19:39:09.865Z,17.70
2023-05-09T19:41:36.879Z,17.80
2023-05-09T19:44:04.158Z,17.90
2023-05-09T19:46:31.058Z,17.90
2023-05-09T19:48:58.030Z,17.90
2023-05-09T19:51:27.247Z,18.00
2023-05-09T19:53:55.707Z,18.00
2023-05-09T19:56:22.775Z,17.90
2023-05-09T19:58:49.688Z,17.80
2023-05-09T20:01:17.978Z,17.80
2023-05-09T20:03:45.125Z,17.90
2023-05-09T20:06:12.930Z,17.90
2023-05-09T20:08:39.778Z,18.00
2023-05-09T20:11:06.669Z,17.90
2023-05-09T20:13:37.785Z,18.00
2023-05-09T20:16:05.057Z,18.00
2023-05-09T20:18:31.936Z,18.10
2023-05-09T20:20:59.759Z,18.10
2023-05-09T20:23:27.810Z,18.10
2023-05-09T20:25:55.485Z,18.00
2023-05-09T20:28:22.351Z,17.90
2023-05-09T20:30:49.449Z,17.90
2023-05-09T20:33:16.510Z,18.00
2023-05-09T20:35:43.394Z,17.90
2023-05-09T20:38:12.814Z,18.00
2023-05-09T20:40:39.707Z,18.10
2023-05-09T20:43:06.553Z,18.30
2023-05-09T20:45:33.492Z,18.50
2023-05-09T20:48:00.414Z,18.40
2023-05-09T20:50:27.292Z,18.50
2023-05-09T20:52:54.202Z,18.50
2023-05-09T20:55:21.239Z,18.50
2023-05-09T20:57:48.155Z,18.40
2023-05-09T21:00:15.599Z,18.30
2023-05-09T21:02:42.882Z,18.30
2023-05-09T21:05:09.927Z,18.40
2023-05-09T21:07:36.820Z,18.40
2023-05-09T21:10:03.957Z,18.30
2023-05-09T21:12:30.838Z,18.10
2023-05-09T21:14:57.805Z,17.90
2023-05-09T21:17:24.692Z,17.90
2023-05-09T21:19:51.689Z,17.90
2023-05-09T21:22:18.659Z,17.80
2023-05-09T21:24:45.548Z,17.70
2023-05-09T21:27:12.432Z,17.60
2023-05-09T21:29:39.292Z,17.60
2023-05-09T21:32:06.391Z,17.50
2023-05-09T21:34:33.364Z,17.50
2023-05-09T21:37:00.825Z,17.40
2023-05-09T21:39:27.921Z,17.50
2023-05-09T21:41:54.806Z,17.40
2023-05-09T21:44:21.713Z,17.40
2023-05-09T21:46:48.648Z,17.50
2023-05-09T21:49:15.645Z,17.50
2023-05-09T21:51:42.828Z,17.60
2023-05-09T21:54:09.720Z,17.60
2023-05-09T21:56:36.632Z,17.60
2023-05-09T21:59:03.630Z,17.60
2023-05-09T22:01:30.620Z,17.60
2023-05-09T22:03:57.709Z,17.60
2023-05-09T22:06:24.615Z,17.70
2023-05-09T22:08:51.484Z,17.60
2023-05-09T22:11:18.331Z,17.60
2023-05-09T22:13:45.215Z,17.60
2023-05-09T22:16:12.137Z,17.70
2023-05-09T22:18:39.067Z,17.80
2023-05-09T22:21:06.103Z,17.90
2023-05-09T22:23:33.025Z,17.90
2023-05-09T22:26:12.001Z,18.00
2023-05-09T22:28:38.944Z,18.10
2023-05-09T22:31:06.765Z,18.10
2023-05-09T22:33:34.234Z,18.10
2023-05-09T22:36:01.190Z,18.20
2023-05-09T22:38:28.039Z,18.20
2023-05-09T22:40:54.933Z,18.20
2023-05-09T22:43:21.842Z,18.30
2023-05-09T22:45:48.735Z,18.30
2023-05-09T22:48:15.694Z,18.30
2023-05-09T22:50:42.622Z,18.30
2023-05-09T22:53:09.608Z,18.20
2023-05-09T22:55:36.493Z,18.20
2023-05-09T22:58:03.431Z,18.20
2023-05-09T23:00:30.721Z,18.20
2023-05-09T23:02:57.803Z,18.10
2023-05-09T23:05:24.769Z,18.00
2023-05-09T23:07:51.737Z,18.00
2023-05-09T23:10:18.910Z,17.90
2023-05-09T23:12:46.219Z,17.90
2023-05-09T23:15:13.194Z,17.90
2023-05-09T23:17:40.262Z,18.10
2023-05-09T23:20:07.830Z,18.10
2023-05-09T23:22:34.736Z,18.20
2023-05-09T23:25:01.620Z,18.20
2023-05-09T23:27:28.609Z,18.30
2023-05-09T23:30:06.107Z,18.30
2023-05-09T23:32:33.011Z,18.30
2023-05-09T23:34:59.884Z,18.30
2023-05-09T23:37:26.796Z,18.20
2023-05-09T23:39:53.689Z,18.20
2023-05-09T23:42:20.632Z,18.30
2023-05-09T23:44:47.571Z,18.30
2023-05-09T23:47:14.472Z,18.30
2023-05-09T23:49:42.706Z,18.30
2023-05-09T23:52:09.597Z,18.30
2023-05-09T23:54:36.601Z,18.30
2023-05-09T23:57:03.579Z,18.20
2023-05-09T23:59:30.423Z,18.20
